Time;durP1;ratioP1;P1;durP2;ratioP2;P2;SDS_P1;SDS_P2;PMS_P1;PMS_P2;Temp;Humidity;BMP_temperature;BMP_pressure;BME280_temperature;BME280_humidity;BME280_pressure;Samples;Min_cycle;Max_cycle;Signal;HPM_P1;HPM_P2
2023/04/11 00:00:31;;;;;;;12.55;3.15;;;;;;;;;;5091917;28;20412;-80
2023/04/11 00:02:58;;;;;;;13.20;2.85;;;;;;;;;;5064871;28;20416;-79
2023/04/11 00:05:26;;;;;;;12.35;3.15;;;;;;;;;;5071442;28;20776;-81
2023/04/11 00:07:52;;;;;;;11.30;2.75;;;;;;;;;;5055085;28;20427;-81
2023/04/11 00:10:18;;;;;;;13.10;3.03;;;;;;;;;;5071295;28;20412;-81
2023/04/11 00:12:44;;;;;;;13.43;3.50;;;;;;;;;;5058771;28;20491;-82
2023/04/11 00:15:10;;;;;;;12.43;3.00;;;;;;;;;;5049495;28;20423;-82
2023/04/11 00:17:36;;;;;;;12.57;3.08;;;;;;;;;;5069027;28;20427;-82
2023/04/11 00:34:13;;;;;;;11.47;3.00;;;;;;;;;;5465746;23;20488;-81
2023/04/11 00:39:29;;;;;;;14.85;3.22;;;;;;;;;;5059466;22;20460;-84
2023/04/11 00:42:03;;;;;;;13.35;2.90;;;;;;;;;;5034786;28;20920;-84
2023/04/11 00:44:29;;;;;;;12.50;3.10;;;;;;;;;;5022974;28;20834;-84
2023/04/11 00:46:56;;;;;;;14.63;3.25;;;;;;;;;;5003086;28;21011;-84
2023/04/11 00:49:22;;;;;;;13.68;3.10;;;;;;;;;;5001641;28;20571;-84
2023/04/11 00:51:48;;;;;;;16.60;3.30;;;;;;;;;;5032593;28;20433;-84
2023/04/11 00:54:15;;;;;;;12.88;3.38;;;;;;;;;;5017525;28;20526;-84
2023/04/11 00:56:42;;;;;;;14.05;3.22;;;;;;;;;;5019853;28;20919;-83
2023/04/11 00:59:09;;;;;;;10.50;2.90;;;;;;;;;;5034146;28;20424;-83
2023/04/11 01:01:37;;;;;;;12.48;3.08;;;;;;;;;;5053487;28;20539;-84
2023/04/11 01:04:03;;;;;;;14.20;3.40;;;;;;;;;;5001610;28;20448;-84
2023/04/11 01:06:30;;;;;;;14.50;3.05;;;;;;;;;;5034291;28;20417;-84
2023/04/11 01:08:56;;;;;;;12.32;2.83;;;;;;;;;;5032977;28;20494;-83
2023/04/11 01:11:23;;;;;;;12.18;2.85;;;;;;;;;;5023587;28;20485;-84
2023/04/11 01:13:49;;;;;;;9.70;2.53;;;;;;;;;;4994639;28;20487;-84
2023/04/11 01:16:20;;;;;;;15.88;2.80;;;;;;;;;;5033750;28;20416;-84
2023/04/11 01:18:47;;;;;;;11.60;2.70;;;;;;;;;;5029422;28;20424;-84
2023/04/11 01:21:13;;;;;;;11.80;2.53;;;;;;;;;;5018621;28;20479;-84
2023/04/11 01:23:39;;;;;;;13.93;2.38;;;;;;;;;;5019276;28;20412;-83
2023/04/11 01:26:06;;;;;;;8.30;2.30;;;;;;;;;;5035388;28;20428;-84
2023/04/11 01:28:32;;;;;;;13.85;2.03;;;;;;;;;;5034156;28;20483;-84
2023/04/11 01:30:58;;;;;;;10.32;2.38;;;;;;;;;;5002623;28;20421;-83
2023/04/11 01:33:24;;;;;;;7.13;1.90;;;;;;;;;;5034965;28;20425;-84
2023/04/11 01:35:50;;;;;;;10.80;1.92;;;;;;;;;;5018374;28;20402;-83
2023/04/11 01:38:16;;;;;;;9.60;2.08;;;;;;;;;;4990038;28;20914;-84
2023/04/11 01:40:43;;;;;;;10.07;1.85;;;;;;;;;;5029210;28;20427;-84
2023/04/11 01:43:10;;;;;;;7.95;1.90;;;;;;;;;;4993153;28;20449;-83
2023/04/11 01:45:36;;;;;;;6.88;1.70;;;;;;;;;;5006327;28;20437;-83
2023/04/11 01:48:07;;;;;;;6.57;1.40;;;;;;;;;;5016553;28;20415;-83
2023/04/11 01:50:33;;;;;;;4.32;1.40;;;;;;;;;;5015461;28;20750;-84
2023/04/11 01:52:59;;;;;;;6.93;1.63;;;;;;;;;;4998961;28;20756;-81
2023/04/11 01:55:25;;;;;;;7.55;1.70;;;;;;;;;;4996431;28;20426;-84
2023/04/11 01:57:51;;;;;;;5.63;1.35;;;;;;;;;;5000499;28;20767;-83
2023/04/11 02:00:18;;;;;;;6.00;1.77;;;;;;;;;;5029807;28;20501;-83
2023/04/11 02:02:44;;;;;;;5.70;1.38;;;;;;;;;;5012665;28;20505;-83
2023/04/11 02:05:10;;;;;;;5.10;1.30;;;;;;;;;;5013843;28;20926;-83
2023/04/11 02:07:36;;;;;;;4.80;1.50;;;;;;;;;;5025022;28;20493;-84
2023/04/11 02:10:03;;;;;;;6.05;1.80;;;;;;;;;;5010639;28;20489;-84
2023/04/11 02:12:29;;;;;;;4.90;1.47;;;;;;;;;;4995220;28;20397;-84
2023/04/11 02:14:55;;;;;;;7.72;1.98;;;;;;;;;;5013451;28;20622;-84
2023/04/11 02:17:24;;;;;;;9.88;1.90;;;;;;;;;;5021076;28;20427;-82
2023/04/11 02:19:50;;;;;;;7.78;2.30;;;;;;;;;;4992580;28;20970;-86
2023/04/11 02:22:16;;;;;;;6.13;1.92;;;;;;;;;;5014642;28;20407;-86
2023/04/11 02:24:43;;;;;;;7.43;1.90;;;;;;;;;;5015596;28;20412;-85
2023/04/11 02:27:09;;;;;;;8.30;1.98;;;;;;;;;;4999987;28;20463;-86
2023/04/11 02:29:35;;;;;;;7.28;1.80;;;;;;;;;;5018715;28;20936;-88
2023/04/11 02:32:01;;;;;;;8.43;2.03;;;;;;;;;;4997134;28;20464;-87
2023/04/11 02:34:27;;;;;;;5.97;1.73;;;;;;;;;;4998932;28;20779;-86
2023/04/11 02:36:54;;;;;;;8.23;1.90;;;;;;;;;;4999195;28;20407;-86
2023/04/11 02:39:23;;;;;;;5.97;1.55;;;;;;;;;;4996706;28;20435;-86
2023/04/11 02:41:49;;;;;;;5.97;1.58;;;;;;;;;;5014475;28;20981;-84
2023/04/11 02:44:16;;;;;;;5.80;1.48;;;;;;;;;;4997023;28;20423;-82
2023/04/11 02:46:42;;;;;;;5.80;1.80;;;;;;;;;;5013503;28;20430;-83
2023/04/11 02:49:08;;;;;;;5.97;1.80;;;;;;;;;;4994115;28;20427;-83
2023/04/11 02:51:34;;;;;;;4.65;1.77;;;;;;;;;;5011960;28;20423;-83
2023/04/11 02:54:00;;;;;;;5.03;1.60;;;;;;;;;;5018875;28;20917;-79
2023/04/11 02:56:29;;;;;;;5.18;1.85;;;;;;;;;;4997411;28;20403;-79
2023/04/11 02:58:55;;;;;;;8.65;1.98;;;;;;;;;;4996591;28;20423;-78
2023/04/11 03:01:23;;;;;;;5.15;1.65;;;;;;;;;;5012115;28;20512;-78
2023/04/11 03:03:49;;;;;;;5.97;1.80;;;;;;;;;;4999341;28;20480;-79
2023/04/11 03:06:15;;;;;;;5.68;1.77;;;;;;;;;;5011871;28;20422;-79
2023/04/11 03:08:41;;;;;;;6.72;1.90;;;;;;;;;;5011580;28;20431;-79
2023/04/11 03:11:07;;;;;;;6.22;2.13;;;;;;;;;;5015969;28;20454;-83
2023/04/11 03:13:35;;;;;;;8.55;2.30;;;;;;;;;;5011221;28;20522;-84
2023/04/11 03:16:02;;;;;;;6.28;2.00;;;;;;;;;;5013935;28;20514;-83
2023/04/11 03:18:28;;;;;;;8.95;2.20;;;;;;;;;;5027886;28;20418;-83
2023/04/11 03:20:54;;;;;;;9.07;2.55;;;;;;;;;;5015843;28;20786;-84
2023/04/11 03:23:21;;;;;;;7.65;1.85;;;;;;;;;;5020095;28;20431;-84
2023/04/11 03:25:47;;;;;;;7.63;2.10;;;;;;;;;;5011817;28;20435;-84
2023/04/11 03:28:14;;;;;;;7.75;2.47;;;;;;;;;;5011164;28;20430;-83
2023/04/11 03:30:41;;;;;;;8.38;2.10;;;;;;;;;;5016548;28;20604;-83
2023/04/11 03:33:08;;;;;;;10.38;2.55;;;;;;;;;;5021616;28;20437;-83
2023/04/11 03:35:34;;;;;;;11.98;2.95;;;;;;;;;;5015604;28;20945;-80
2023/04/11 03:38:00;;;;;;;9.55;2.40;;;;;;;;;;5013422;28;20477;-82
2023/04/11 03:40:26;;;;;;;8.07;2.40;;;;;;;;;;5002725;28;20433;-83
2023/04/11 03:42:52;;;;;;;10.03;2.80;;;;;;;;;;5016476;28;20422;-83
2023/04/11 03:45:18;;;;;;;12.40;2.88;;;;;;;;;;5017244;28;20921;-82
2023/04/11 03:47:44;;;;;;;9.73;2.70;;;;;;;;;;5012848;28;20419;-83
2023/04/11 03:50:10;;;;;;;14.03;2.90;;;;;;;;;;5003987;28;20510;-82
2023/04/11 03:52:37;;;;;;;9.65;3.13;;;;;;;;;;5015064;28;20435;-81
2023/04/11 03:55:04;;;;;;;8.82;2.60;;;;;;;;;;5016797;28;20403;-81
2023/04/11 03:57:31;;;;;;;14.85;3.42;;;;;;;;;;4999326;28;20450;-84
2023/04/11 03:59:57;;;;;;;11.10;2.58;;;;;;;;;;5003780;28;20423;-81
2023/04/11 04:02:23;;;;;;;12.05;3.25;;;;;;;;;;5016985;28;20502;-83
2023/04/11 04:04:57;;;;;;;11.40;3.00;;;;;;;;;;5016649;28;20902;-83
2023/04/11 04:07:26;;;;;;;13.98;3.28;;;;;;;;;;5000713;28;20836;-84
2023/04/11 04:09:53;;;;;;;11.23;3.05;;;;;;;;;;5032365;28;20415;-84
2023/04/11 04:12:19;;;;;;;12.77;3.25;;;;;;;;;;5012544;28;20786;-84
2023/04/11 04:14:46;;;;;;;14.32;3.35;;;;;;;;;;5015442;28;20941;-84
2023/04/11 04:17:12;;;;;;;14.98;3.17;;;;;;;;;;5032142;28;20434;-83
2023/04/11 04:19:38;;;;;;;12.53;3.20;;;;;;;;;;4997541;28;20538;-83
2023/04/11 04:22:10;;;;;;;12.20;3.28;;;;;;;;;;5000842;28;20759;-84
2023/04/11 04:24:36;;;;;;;15.13;3.43;;;;;;;;;;5001464;28;20446;-84
2023/04/11 04:27:07;;;;;;;15.32;3.53;;;;;;;;;;5018657;28;20923;-84
2023/04/11 04:29:37;;;;;;;16.90;3.88;;;;;;;;;;5015288;28;20423;-84
2023/04/11 04:32:09;;;;;;;17.00;4.40;;;;;;;;;;5012390;28;20437;-80
2023/04/11 04:34:36;;;;;;;15.40;3.70;;;;;;;;;;5015795;28;20434;-82
2023/04/11 04:37:02;;;;;;;16.77;4.05;;;;;;;;;;5014428;28;20477;-84
2023/04/11 04:39:29;;;;;;;16.10;3.85;;;;;;;;;;5014476;28;20450;-84
2023/04/11 04:41:58;;;;;;;12.63;3.20;;;;;;;;;;4999572;28;20510;-84
2023/04/11 04:44:24;;;;;;;12.95;3.40;;;;;;;;;;5031706;28;20398;-83
2023/04/11 04:46:54;;;;;;;12.25;3.38;;;;;;;;;;5028346;28;20451;-84
2023/04/11 04:49:20;;;;;;;11.40;3.03;;;;;;;;;;5015801;28;20504;-83
2023/04/11 04:51:46;;;;;;;13.02;3.25;;;;;;;;;;4996064;28;21011;-82
2023/04/11 04:54:13;;;;;;;15.32;3.20;;;;;;;;;;5027922;28;20430;-81
2023/04/11 04:56:40;;;;;;;12.48;3.22;;;;;;;;;;5031513;28;20993;-81
2023/04/11 04:59:07;;;;;;;12.40;3.08;;;;;;;;;;5013799;28;20427;-81
2023/04/11 05:01:33;;;;;;;10.88;3.60;;;;;;;;;;5007972;28;20461;-81
2023/04/11 05:04:00;;;;;;;15.75;3.65;;;;;;;;;;5030033;28;20825;-81
2023/04/11 05:06:30;;;;;;;10.73;3.17;;;;;;;;;;5016707;28;20438;-82
2023/04/11 05:08:57;;;;;;;14.50;3.35;;;;;;;;;;5012563;28;20423;-81
2023/04/11 05:11:24;;;;;;;10.60;2.90;;;;;;;;;;4996640;28;20426;-82
2023/04/11 05:13:51;;;;;;;11.43;3.22;;;;;;;;;;5031038;28;20430;-83
2023/04/11 05:16:17;;;;;;;11.48;3.25;;;;;;;;;;4995221;28;20424;-82
2023/04/11 05:18:43;;;;;;;16.38;4.05;;;;;;;;;;5015162;28;20476;-82
2023/04/11 05:21:10;;;;;;;11.90;3.13;;;;;;;;;;4996197;28;20474;-82
2023/04/11 05:23:36;;;;;;;12.30;3.27;;;;;;;;;;5008526;28;20419;-81
2023/04/11 05:26:02;;;;;;;11.80;3.10;;;;;;;;;;5013660;28;20775;-81
2023/04/11 05:28:30;;;;;;;13.97;3.10;;;;;;;;;;5015190;28;20885;-81
2023/04/11 05:30:56;;;;;;;9.98;3.53;;;;;;;;;;5010366;28;20422;-82
2023/04/11 05:33:23;;;;;;;11.75;3.30;;;;;;;;;;5012971;28;20881;-82
2023/04/11 05:35:50;;;;;;;13.05;3.42;;;;;;;;;;5013183;28;20421;-83
2023/04/11 05:38:16;;;;;;;12.43;3.17;;;;;;;;;;4996046;28;20445;-83
2023/04/11 05:40:42;;;;;;;12.95;3.10;;;;;;;;;;5020201;28;20446;-82
2023/04/11 05:43:12;;;;;;;11.90;3.17;;;;;;;;;;5000690;28;20423;-82
2023/04/11 05:45:39;;;;;;;12.80;3.15;;;;;;;;;;5025947;28;20937;-83
2023/04/11 05:48:06;;;;;;;11.05;3.20;;;;;;;;;;5010921;28;20434;-82
2023/04/11 05:50:33;;;;;;;12.10;3.20;;;;;;;;;;4994782;28;20420;-82
2023/04/11 05:52:59;;;;;;;12.55;3.50;;;;;;;;;;5021726;28;20842;-81
2023/04/11 05:55:25;;;;;;;8.25;3.05;;;;;;;;;;5004702;28;20425;-80
2023/04/11 05:57:51;;;;;;;12.60;3.47;;;;;;;;;;5012930;28;20415;-81
2023/04/11 06:00:17;;;;;;;11.48;3.25;;;;;;;;;;5011123;28;20493;-81
2023/04/11 06:02:45;;;;;;;13.63;3.55;;;;;;;;;;5011805;28;20423;-81
2023/04/11 06:05:11;;;;;;;14.93;3.85;;;;;;;;;;5021921;28;20744;-81
2023/04/11 06:07:38;;;;;;;12.13;3.17;;;;;;;;;;5011969;28;20930;-81
2023/04/11 06:10:05;;;;;;;11.23;2.90;;;;;;;;;;5011197;28;20424;-81
2023/04/11 06:12:31;;;;;;;13.18;3.05;;;;;;;;;;5012482;28;20826;-82
2023/04/11 06:14:58;;;;;;;13.50;3.03;;;;;;;;;;4994773;28;20423;-83
2023/04/11 06:17:24;;;;;;;11.27;2.60;;;;;;;;;;5014419;28;20414;-82
2023/04/11 06:19:51;;;;;;;13.10;2.95;;;;;;;;;;5008651;28;20422;-79
2023/04/11 06:22:17;;;;;;;12.23;3.00;;;;;;;;;;5022539;28;20429;-79
2023/04/11 06:24:46;;;;;;;11.93;2.97;;;;;;;;;;5013041;28;20415;-80
2023/04/11 06:27:12;;;;;;;13.05;3.22;;;;;;;;;;5010102;28;20454;-80
2023/04/11 06:29:38;;;;;;;15.03;3.37;;;;;;;;;;5014061;28;20426;-80
2023/04/11 06:32:04;;;;;;;9.57;3.30;;;;;;;;;;4990858;28;20441;-80
2023/04/11 06:34:33;;;;;;;14.85;3.60;;;;;;;;;;5011396;28;20439;-83
2023/04/11 06:36:59;;;;;;;12.77;3.40;;;;;;;;;;4994469;28;20419;-82
2023/04/11 06:39:25;;;;;;;13.20;3.63;;;;;;;;;;5014178;28;20466;-83
2023/04/11 06:41:52;;;;;;;12.63;3.27;;;;;;;;;;5028361;28;20444;-83
2023/04/11 06:44:18;;;;;;;12.85;3.03;;;;;;;;;;4997677;28;20411;-82
2023/04/11 06:46:44;;;;;;;12.75;3.35;;;;;;;;;;5015861;28;20464;-82
2023/04/11 06:49:10;;;;;;;12.50;3.05;;;;;;;;;;5001241;28;20429;-80
2023/04/11 06:51:37;;;;;;;15.52;3.10;;;;;;;;;;5013869;28;20435;-82
2023/04/11 06:54:03;;;;;;;13.38;3.30;;;;;;;;;;5010330;28;20764;-82
2023/04/11 06:56:29;;;;;;;14.55;3.22;;;;;;;;;;5029655;28;20419;-81
2023/04/11 06:58:55;;;;;;;13.35;2.75;;;;;;;;;;5016409;28;20451;-82
2023/04/11 07:01:24;;;;;;;13.65;2.88;;;;;;;;;;5013184;28;20992;-82
2023/04/11 07:03:53;;;;;;;16.58;3.00;;;;;;;;;;5016767;28;20422;-83
2023/04/11 07:06:20;;;;;;;14.60;2.80;;;;;;;;;;5026667;28;20586;-83
2023/04/11 07:08:46;;;;;;;10.32;2.75;;;;;;;;;;5017154;28;20426;-84
2023/04/11 07:11:12;;;;;;;14.38;3.17;;;;;;;;;;5022921;28;20419;-84
2023/04/11 07:13:38;;;;;;;15.93;2.67;;;;;;;;;;4999768;28;20439;-80
2023/04/11 07:16:04;;;;;;;14.05;3.58;;;;;;;;;;5014043;28;20426;-81
2023/04/11 07:18:33;;;;;;;13.90;2.85;;;;;;;;;;5017375;28;20407;-81
2023/04/11 07:20:59;;;;;;;13.52;2.90;;;;;;;;;;5016612;28;20500;-81
2023/04/11 07:23:25;;;;;;;10.70;2.85;;;;;;;;;;5009986;28;20419;-81
2023/04/11 07:25:53;;;;;;;15.17;3.20;;;;;;;;;;5022859;28;20770;-80
2023/04/11 07:28:20;;;;;;;17.75;3.22;;;;;;;;;;5019669;28;20422;-80
2023/04/11 07:30:46;;;;;;;15.07;2.90;;;;;;;;;;5026464;28;20419;-80
2023/04/11 07:33:12;;;;;;;14.80;3.13;;;;;;;;;;5003079;28;20854;-80
2023/04/11 07:35:38;;;;;;;16.65;3.35;;;;;;;;;;5015617;28;20477;-79
2023/04/11 07:38:05;;;;;;;11.85;3.03;;;;;;;;;;5000155;28;20430;-79
2023/04/11 07:40:31;;;;;;;13.20;2.90;;;;;;;;;;4995527;28;20458;-79
2023/04/11 07:42:57;;;;;;;14.40;2.93;;;;;;;;;;5021199;28;20828;-77
2023/04/11 07:45:23;;;;;;;11.70;2.88;;;;;;;;;;5012230;28;21482;-78
2023/04/11 07:47:49;;;;;;;12.52;2.55;;;;;;;;;;4995439;28;20419;-79
2023/04/11 07:50:15;;;;;;;13.23;2.80;;;;;;;;;;5015065;28;20509;-79
2023/04/11 07:52:41;;;;;;;13.23;2.88;;;;;;;;;;5011873;28;20968;-79
2023/04/11 07:55:08;;;;;;;10.18;2.78;;;;;;;;;;5001612;28;20423;-79
2023/04/11 07:57:34;;;;;;;15.98;3.00;;;;;;;;;;4993087;28;20415;-81
2023/04/11 08:00:00;;;;;;;12.20;2.70;;;;;;;;;;5012752;28;20918;-83
2023/04/11 08:02:26;;;;;;;13.80;2.92;;;;;;;;;;5015964;28;20421;-82
2023/04/11 08:04:52;;;;;;;8.80;2.63;;;;;;;;;;4999394;28;20505;-79
2023/04/11 08:07:18;;;;;;;13.40;2.80;;;;;;;;;;4996593;28;20440;-79
2023/04/11 08:09:44;;;;;;;11.50;2.70;;;;;;;;;;5000105;28;20432;-82
2023/04/11 08:12:11;;;;;;;9.48;2.53;;;;;;;;;;5016677;28;20415;-83
2023/04/11 08:14:37;;;;;;;10.35;2.50;;;;;;;;;;5008803;28;20519;-82
2023/04/11 08:17:03;;;;;;;15.17;2.83;;;;;;;;;;5011445;28;20430;-83
2023/04/11 08:19:30;;;;;;;10.40;2.60;;;;;;;;;;5016897;28;20684;-83
2023/04/11 08:21:56;;;;;;;14.18;3.15;;;;;;;;;;5000899;28;20446;-85
2023/04/11 08:24:22;;;;;;;12.40;2.38;;;;;;;;;;5015192;28;20427;-80
2023/04/11 08:26:48;;;;;;;10.13;2.37;;;;;;;;;;4998925;28;20510;-81
2023/04/11 08:29:14;;;;;;;10.02;2.42;;;;;;;;;;5017313;28;20466;-82
2023/04/11 08:31:43;;;;;;;11.07;2.90;;;;;;;;;;5012428;28;20432;-80
2023/04/11 08:34:09;;;;;;;11.55;2.50;;;;;;;;;;5011029;28;20427;-81
2023/04/11 08:36:36;;;;;;;10.85;2.25;;;;;;;;;;4997742;28;20419;-80
2023/04/11 08:39:02;;;;;;;10.25;2.45;;;;;;;;;;5013596;28;20774;-81
2023/04/11 08:41:31;;;;;;;10.85;2.28;;;;;;;;;;5015135;28;20523;-80
2023/04/11 08:43:57;;;;;;;10.73;2.80;;;;;;;;;;4996145;28;20427;-80
2023/04/11 08:46:24;;;;;;;12.23;2.67;;;;;;;;;;5027272;28;20424;-80
2023/04/11 08:48:50;;;;;;;11.55;2.63;;;;;;;;;;5008850;28;20922;-80
2023/04/11 08:51:23;;;;;;;7.25;2.33;;;;;;;;;;4995710;28;20422;-80
2023/04/11 08:53:52;;;;;;;9.27;2.30;;;;;;;;;;5003552;28;20455;-80
2023/04/11 08:56:18;;;;;;;7.47;1.83;;;;;;;;;;5024842;28;20540;-78
2023/04/11 08:58:44;;;;;;;7.05;1.70;;;;;;;;;;5010541;28;20430;-77
2023/04/11 09:01:30;;;;;;;6.05;1.52;;;;;;;;;;4998664;28;20430;-79
2023/04/11 09:03:58;;;;;;;6.70;2.03;;;;;;;;;;4999637;28;20434;-78
2023/04/11 09:06:25;;;;;;;8.43;2.22;;;;;;;;;;5010127;28;20427;-78
2023/04/11 09:08:51;;;;;;;8.05;2.03;;;;;;;;;;5004842;28;20434;-79
2023/04/11 09:11:17;;;;;;;9.48;2.33;;;;;;;;;;5020585;28;20587;-76
2023/04/11 09:13:44;;;;;;;7.47;2.00;;;;;;;;;;5011823;28;20430;-76
2023/04/11 09:16:12;;;;;;;8.75;2.17;;;7.70;99.90;;;;;;5003242;28;20914;-75
2023/04/11 09:18:38;;;;;;;8.43;2.30;;;;;;;;;;5014179;28;20434;-77
2023/04/11 09:21:05;;;;;;;10.25;2.70;;;;;;;;;;5012082;28;20418;-77
2023/04/11 09:23:31;;;;;;;14.30;3.30;;;;;;;;;;5014825;28;20402;-77
2023/04/11 09:25:57;;;;;;;13.10;3.10;;;;;;;;;;4996498;28;20429;-78
2023/04/11 09:28:24;;;;;;;13.15;3.03;;;;;;;;;;5014820;28;20958;-76
2023/04/11 09:30:52;;;;;;;12.48;3.13;;;8.90;99.90;;;;;;5015390;28;20411;-76
2023/04/11 09:33:21;;;;;;;13.60;3.05;;;9.30;99.90;;;;;;5014914;28;20422;-77
2023/04/11 09:35:52;;;;;;;8.50;2.30;;;;;;;;;;4997632;28;20805;-77
2023/04/11 09:38:34;;;;;;;9.25;2.35;;;;;;;;;;5012044;28;20455;-77
2023/04/11 09:41:01;;;;;;;8.00;2.40;;;;;;;;;;5023421;28;20622;-76
2023/04/11 09:43:28;;;;;;;12.68;2.70;;;;;;;;;;5046841;28;20525;-77
2023/04/11 09:46:10;;;;;;;12.63;3.10;;;;;;;;;;5030664;28;20423;-77
2023/04/11 09:48:37;;;;;;;12.88;2.50;;;;;;;;;;5012170;28;20918;-77
2023/04/11 09:51:05;;;;;;;13.27;3.25;;;;;;;;;;5012347;28;20435;-77
2023/04/11 09:53:34;;;;;;;12.63;2.88;;;;;;;;;;5010211;28;20458;-77
2023/04/11 09:56:00;;;;;;;14.13;2.93;;;;;;;;;;5010228;28;20430;-78
2023/04/11 09:58:30;;;;;;;9.98;2.50;;;;;;;;;;5005954;28;20438;-76
2023/04/11 10:00:58;;;;;;;8.07;2.30;;;;;;;;;;5014029;28;20990;-77
2023/04/11 10:03:27;;;;;;;14.23;3.08;;;;;;;;;;5009327;28;20438;-77
2023/04/11 10:05:54;;;;;;;11.63;2.80;;;;;;;;;;5028871;28;20414;-77
2023/04/11 10:08:26;;;;;;;12.65;3.05;;;;;;;;;;4995805;28;20430;-78
2023/04/11 10:10:53;;;;;;;9.40;2.55;;;;;;;;;;5017029;28;20501;-78
2023/04/11 10:13:56;;;;;;;9.63;2.60;;;;;;;;;;4991256;28;20434;-79
2023/04/11 10:16:24;;;;;;;9.63;2.72;;;;;;;;;;4948973;28;20428;-78
2023/04/11 10:18:50;;;;;;;10.57;2.50;;;;;;;;;;4997916;28;20462;-77
2023/04/11 10:21:28;;;;;;;10.43;2.88;;;;;;;;;;5011430;28;20519;-78
2023/04/11 10:24:14;;;;;;;9.15;2.40;;;;;;;;;;4991706;28;20428;-78
2023/04/11 10:26:54;;;;;;;10.48;2.35;;;;;;;;;;5008630;28;20942;-78
2023/04/11 10:32:14;;;;;;;6.45;1.80;;;;;;;;;;5008869;28;20423;-77
2023/04/11 10:34:49;;;;;;;5.82;1.80;;;;;;;;;;5004190;28;20442;-77
2023/04/11 10:37:16;;;;;;;7.25;2.00;;;;;;;;;;5013053;28;20505;-78
2023/04/11 10:40:00;;;;;;;5.53;1.80;;;;;;;;;;5019048;28;20426;-77
2023/04/11 10:42:30;;;;;;;8.65;1.98;;;;;;;;;;5003805;28;20414;-77
2023/04/11 10:45:16;;;;;;;7.97;1.95;;;;;;;;;;5014466;28;20427;-77
2023/04/11 10:47:43;;;;;;;9.88;2.15;;;;;;;;;;5021470;28;20480;-78
2023/04/11 10:50:27;;;;;;;8.05;1.95;;;;;;;;;;5014038;28;20756;-77
2023/04/11 10:52:54;;;;;;;9.18;2.60;;;;;;;;;;5009212;28;20458;-78
2023/04/11 10:55:20;;;;;;;8.05;2.10;;;;;;;;;;4999559;28;20477;-79
2023/04/11 10:58:06;;;;;;;9.60;2.20;;;;;;;;;;5007667;28;20421;-79
2023/04/11 11:00:48;;;;;;;5.22;1.60;;;;;;;;;;5018838;28;20940;-78
2023/04/11 11:03:18;;;;;;;7.05;2.05;;;;;;;;;;4996630;28;20911;-78
2023/04/11 11:05:44;;;;;;;6.28;1.90;;;;;;;;;;5018344;28;20427;-77
2023/04/11 11:08:11;;;;;;;12.73;2.60;;;;;;;;;;5006841;28;20431;-78
2023/04/11 11:10:38;;;;;;;8.95;2.42;;;;;;;;;;5011857;28;20438;-79
2023/04/11 11:13:04;;;;;;;13.43;2.97;;;;;;;;;;4999208;28;20509;-77
2023/04/11 11:15:36;;;;;;;10.02;2.17;;;;;;;;;;5000354;28;20419;-77
2023/04/11 11:18:03;;;;;;;9.43;2.43;;;;;;;;;;5015870;28;20505;-77
2023/04/11 11:20:29;;;;;;;12.25;2.85;;;;;;;;;;5004544;28;20966;-77
2023/04/11 11:23:03;;;;;;;11.82;2.83;;;;;;;;;;5003898;28;20517;-77
2023/04/11 11:25:29;;;;;;;12.70;2.63;;;;;;;;;;5001765;28;20415;-77
2023/04/11 11:28:05;;;;;;;12.07;3.00;;;;;;;;;;5029985;28;20415;-77
2023/04/11 11:30:31;;;;;;;10.43;2.80;;;;;;;;;;5016783;28;20477;-77
2023/04/11 11:32:57;;;;;;;10.95;2.80;;;;;;;;;;4980753;28;20496;-78
2023/04/11 11:35:24;;;;;;;11.70;3.08;;;;;;;;;;5003903;28;20756;-76
2023/04/11 11:37:53;;;;;;;10.20;2.60;;;;;;;;;;5008092;28;20855;-77
2023/04/11 11:40:21;;;;;;;10.38;2.55;;;;;;;;;;5010494;28;20506;-77
2023/04/11 11:42:50;;;;;;;10.82;2.40;;;9.00;99.90;;;;;;4994714;28;20426;-78
2023/04/11 11:45:20;;;;;;;6.80;2.10;;;9.40;99.90;;;;;;4993179;28;20422;-78
2023/04/11 11:47:47;;;;;;;9.93;2.42;;;;;;;;;;5004910;28;20414;-78
2023/04/11 11:50:32;;;;;;;11.77;2.88;;;;;;;;;;5022757;28;20466;-79
2023/04/11 11:53:11;;;;;;;9.65;2.60;;;;;;;;;;5012987;28;20528;-78
2023/04/11 11:55:38;;;;;;;10.37;2.33;;;;;;;;;;5042951;28;20429;-78
2023/04/11 11:58:04;;;;;;;10.05;2.35;;;;;;;;;;5023588;28;20434;-78
2023/04/11 12:00:40;;;;;;;10.73;2.35;;;;;;;;;;5001673;28;20526;-78
2023/04/11 12:03:09;;;;;;;10.63;2.22;;;;;;;;;;5019067;28;20426;-78
2023/04/11 12:05:35;;;;;;;11.77;2.97;;;;;;;;;;4995953;28;20497;-78
2023/04/11 12:08:03;;;;;;;10.95;2.60;;;;;;;;;;4995517;28;20528;-78
2023/04/11 12:10:38;;;;;;;10.88;2.45;;;;;;;;;;4993003;28;20428;-77
2023/04/11 12:13:11;;;;;;;10.52;2.30;;;;;;;;;;5014862;28;20477;-78
2023/04/11 12:15:37;;;;;;;9.43;2.30;;;;;;;;;;5011492;28;21719;-77
2023/04/11 12:18:05;;;;;;;8.18;2.50;;;11.50;99.90;;;;;;5012181;28;20564;-78
2023/04/11 12:20:31;;;;;;;13.45;2.65;;;;;;;;;;5014580;28;20429;-77
2023/04/11 12:22:57;;;;;;;9.88;2.53;;;;;;;;;;4981565;28;20419;-78
2023/04/11 12:25:26;;;;;;;8.77;2.40;;;;;;;;;;5014463;28;20910;-77
2023/04/11 12:27:53;;;;;;;11.02;2.55;;;;;;;;;;5015233;28;20415;-77
2023/04/11 12:30:19;;;;;;;8.45;2.20;;;;;;;;;;5004661;28;20495;-77
2023/04/11 12:32:45;;;;;;;14.60;2.45;;;;;;;;;;5020713;28;20422;-78
2023/04/11 12:35:12;;;;;;;9.57;2.25;;;;;;;;;;5003914;28;20424;-78
2023/04/11 12:37:38;;;;;;;9.70;2.40;;;;;;;;;;5021934;28;20451;-79
2023/04/11 12:40:11;;;;;;;8.70;2.10;;;;;;;;;;5026129;28;20415;-78
2023/04/11 12:42:38;;;;;;;14.55;2.72;;;;;;;;;;5004151;28;20422;-78
2023/04/11 12:45:05;;;;;;;9.75;2.40;;;;;;;;;;5014606;28;20415;-78
2023/04/11 12:47:31;;;;;;;11.70;2.33;;;;;;;;;;4996694;28;20430;-78
2023/04/11 12:49:57;;;;;;;7.28;1.88;;;;;;;;;;5018047;28;20431;-78
2023/04/11 12:52:24;;;;;;;7.07;2.00;;;12.70;99.90;;;;;;5000519;28;20430;-77
2023/04/11 12:54:50;;;;;;;9.05;2.47;;;;;;;;;;5012699;28;20480;-76
2023/04/11 12:57:16;;;;;;;9.32;2.83;;;;;;;;;;4994744;28;20774;-77
2023/04/11 12:59:42;;;;;;;7.72;1.92;;;;;;;;;;5016276;28;20423;-78
2023/04/11 13:02:08;;;;;;;8.87;2.10;;;;;;;;;;5009543;28;21019;-77
2023/04/11 13:04:35;;;;;;;9.30;2.42;;;;;;;;;;4984927;28;20419;-78
2023/04/11 13:07:02;;;;;;;7.72;2.00;;;;;;;;;;5000560;28;20510;-78
2023/04/11 13:09:28;;;;;;;9.98;2.42;;;;;;;;;;5019321;28;20435;-78
2023/04/11 13:11:55;;;;;;;9.88;2.50;;;;;;;;;;5018841;28;20426;-78
2023/04/11 13:14:21;;;;;;;8.02;2.15;;;;;;;;;;5012392;28;20430;-78
2023/04/11 13:16:48;;;;;;;10.20;2.00;;;;;;;;;;5012085;28;21094;-78
2023/04/11 13:19:14;;;;;;;10.00;2.17;;;;;;;;;;5001258;28;20433;-78
2023/04/11 13:21:40;;;;;;;7.47;2.10;;;;;;;;;;5015973;28;20418;-77
2023/04/11 13:24:06;;;;;;;8.23;2.17;;;;;;;;;;4997374;28;20419;-79
2023/04/11 13:26:36;;;;;;;8.10;2.10;;;;;;;;;;4999011;28;20469;-79
2023/04/11 13:29:02;;;;;;;9.60;1.85;;;;;;;;;;5027696;28;20446;-79
2023/04/11 13:31:28;;;;;;;6.82;1.60;;;;;;;;;;5002582;28;20430;-78
2023/04/11 13:33:58;;;;;;;8.13;2.20;;;;;;;;;;5013497;28;20450;-78
2023/04/11 13:36:27;;;;;;;6.03;1.85;;;;;;;;;;5012350;28;20430;-79
2023/04/11 13:38:55;;;;;;;7.70;2.20;;;;;;;;;;5010245;28;20830;-78
2023/04/11 13:41:21;;;;;;;8.35;2.03;;;;;;;;;;5002123;28;20847;-78
2023/04/11 13:43:48;;;;;;;7.22;1.92;;;;;;;;;;4997558;28;20528;-78
2023/04/11 13:46:18;;;;;;;9.07;2.10;;;;;;;;;;5012691;28;20530;-79
2023/04/11 13:48:44;;;;;;;9.48;1.80;;;;;;;;;;5013016;28;20423;-78
2023/04/11 13:51:10;;;;;;;6.78;1.77;;;;;;;;;;4996179;28;20427;-77
2023/04/11 13:53:36;;;;;;;9.45;1.60;;;;;;;;;;5012808;28;20427;-78
2023/04/11 13:56:03;;;;;;;7.20;1.83;;;;;;;;;;4997736;28;20869;-78
2023/04/11 13:58:29;;;;;;;8.17;1.63;;;;;;;;;;5013480;28;20775;-78
2023/04/11 14:00:55;;;;;;;6.68;1.77;;;;;;;;;;5013620;28;20414;-78
2023/04/11 14:03:23;;;;;;;7.55;1.90;;;;;;;;;;4978578;28;20417;-78
2023/04/11 14:05:49;;;;;;;10.00;2.28;;;;;;;;;;5016802;28;20601;-78
2023/04/11 14:08:15;;;;;;;9.48;2.38;;;;;;;;;;5020716;28;20863;-78
2023/04/11 14:10:41;;;;;;;11.90;2.78;;;;;;;;;;5011839;28;20537;-79
2023/04/11 14:13:08;;;;;;;10.32;2.28;;;;;;;;;;5010347;28;20480;-78
2023/04/11 14:15:34;;;;;;;8.65;1.88;;;;;;;;;;5011743;28;20430;-78
2023/04/11 14:18:00;;;;;;;11.85;2.20;;;;;;;;;;5012545;28;20590;-79
2023/04/11 14:20:27;;;;;;;7.95;2.08;;;;;;;;;;5008925;28;20470;-79
2023/04/11 14:22:55;;;;;;;8.80;1.88;;;;;;;;;;5013261;28;20419;-78
2023/04/11 14:25:21;;;;;;;10.10;2.00;;;;;;;;;;5012996;28;20425;-78
2023/04/11 14:27:47;;;;;;;7.65;1.77;;;;;;;;;;5010453;28;20419;-79
2023/04/11 14:30:14;;;;;;;6.40;1.63;;;;;;;;;;5014473;28;20427;-78
2023/04/11 14:32:40;;;;;;;10.15;2.53;;;;;;;;;;5012133;28;20562;-79
2023/04/11 14:35:08;;;;;;;9.18;2.17;;;;;;;;;;5013249;28;20434;-79
2023/04/11 14:37:34;;;;;;;10.30;2.13;;;;;;;;;;5011549;28;20921;-78
2023/04/11 14:40:00;;;;;;;9.07;2.10;;;;;;;;;;5012289;28;20442;-79
2023/04/11 14:42:27;;;;;;;8.73;1.93;;;;;;;;;;5024018;28;20411;-78
2023/04/11 14:44:53;;;;;;;7.57;1.95;;;;;;;;;;4997378;28;20442;-78
2023/04/11 14:47:19;;;;;;;7.35;2.22;;;;;;;;;;5013183;28;20411;-79
2023/04/11 14:49:45;;;;;;;9.23;2.17;;;;;;;;;;5028483;28;20426;-79
2023/04/11 14:52:11;;;;;;;8.27;2.00;;;;;;;;;;4996826;28;20914;-79
2023/04/11 14:54:37;;;;;;;8.70;1.85;;;;;;;;;;5009696;28;20977;-80